Naknek, Alaska
Current Conditions -  °F | °C
As of 5:56 PM on Friday 21 Nov 2014 (Local Time) from PFWS Reporting Station
Few Clouds Few Clouds  
Wind Chill: 27°   Ceiling: Unl
Heat Index: 34°   Visibility: 10mi
Dew Point: 31°   Wind: 8mph
Humidity: 89%   Direction: 50°NE
Pressure: 28.74"   Gusts: NA
Location:  58.73°N, 157.02°W
Report Text: PFWS 220256Z AUTO 05007KT 10SM FEW075 01/M01 A2874 RMK AO2 SLP736 T00111006 53010 FZRANO
Loading
Personal Weather Stations






























Interactive Weather Map New forecast layout! Learn more

10-Day Weather Forecast

Advertisements
Track Severe Weather on mobile